createdAt,value
2018-06-19T00:00:01.584Z,0
2018-06-19T00:01:11.661Z,0
2018-06-19T00:02:21.748Z,0
2018-06-19T00:03:31.575Z,0
2018-06-19T00:04:41.660Z,0
2018-06-19T00:05:51.473Z,0
2018-06-19T00:07:01.076Z,0
2018-06-19T00:08:11.152Z,0
2018-06-19T00:09:21.230Z,0
2018-06-19T00:10:31.307Z,0
2018-06-19T00:11:41.398Z,0
2018-06-19T00:12:51.484Z,0
2018-06-19T00:14:01.559Z,0
2018-06-19T00:15:11.367Z,0
2018-06-19T00:16:20.953Z,0
2018-06-19T00:17:30.761Z,0
2018-06-19T00:18:40.577Z,0
2018-06-19T00:19:50.397Z,0
2018-06-19T00:21:00.475Z,0
2018-06-19T00:22:10.543Z,0
2018-06-19T00:23:20.647Z,0
2018-06-19T00:24:30.723Z,0
2018-06-19T00:25:40.796Z,0
2018-06-19T00:26:50.892Z,0
2018-06-19T00:28:00.969Z,0
2018-06-19T00:29:11.045Z,0
2018-06-19T00:30:20.850Z,0
2018-06-19T00:31:30.964Z,0
2018-06-19T00:32:41.117Z,0
2018-06-19T00:33:50.939Z,0
2018-06-19T00:35:00.502Z,0
2018-06-19T00:36:10.653Z,0
2018-06-19T00:37:21.441Z,0
2018-06-19T00:38:31.263Z,0
2018-06-19T00:39:41.337Z,0
2018-06-19T00:40:51.430Z,0
2018-06-19T00:42:01.555Z,0
2018-06-19T00:43:11.635Z,0
2018-06-19T00:44:21.716Z,0
2018-06-19T00:45:31.533Z,0
2018-06-19T00:46:41.607Z,0
2018-06-19T00:47:51.431Z,0
2018-06-19T00:49:01.520Z,0
2018-06-19T00:50:11.349Z,0
2018-06-19T00:51:21.420Z,0
2018-06-19T00:52:31.503Z,0
2018-06-19T00:53:41.323Z,0
2018-06-19T00:54:51.149Z,0
2018-06-19T00:56:01.229Z,0
2018-06-19T00:57:11.298Z,0
2018-06-19T00:58:21.132Z,0
2018-06-19T00:59:31.210Z,0
2018-06-19T01:00:41.289Z,0
2018-06-19T01:01:51.114Z,0
2018-06-19T01:03:01.193Z,0
2018-06-19T01:04:11.281Z,0
2018-06-19T01:05:21.354Z,0
2018-06-19T01:06:31.440Z,0
2018-06-19T01:07:41.545Z,0
2018-06-19T01:08:51.362Z,0
2018-06-19T01:10:01.227Z,0
2018-06-19T01:11:10.839Z,0
2018-06-19T01:12:20.918Z,0
2018-06-19T01:13:31.002Z,0
2018-06-19T01:14:40.853Z,0
2018-06-19T01:15:50.935Z,0
2018-06-19T01:17:01.018Z,0
2018-06-19T01:18:10.834Z,0
2018-06-19T01:19:20.904Z,0
2018-06-19T01:20:30.725Z,0
2018-06-19T01:21:40.806Z,0
2018-06-19T01:22:50.858Z,0
2018-06-19T01:24:00.941Z,0
2018-06-19T01:25:11.037Z,0
2018-06-19T01:26:21.122Z,0
2018-06-19T01:27:31.205Z,0
2018-06-19T01:28:41.494Z,0
2018-06-19T01:29:51.744Z,0
2018-06-19T01:31:01.579Z,0
2018-06-19T01:32:11.644Z,0
2018-06-19T01:33:21.745Z,0
2018-06-19T01:34:31.802Z,0
2018-06-19T01:35:41.898Z,0
2018-06-19T01:36:51.994Z,0
2018-06-19T01:38:02.320Z,0
2018-06-19T01:39:12.557Z,0
2018-06-19T01:40:22.650Z,0
2018-06-19T01:41:32.747Z,0
2018-06-19T01:42:42.569Z,0
2018-06-19T01:43:52.640Z,0
2018-06-19T01:45:02.724Z,0
2018-06-19T01:46:12.537Z,0
2018-06-19T01:47:22.614Z,0
2018-06-19T01:48:32.680Z,0
2018-06-19T01:49:42.757Z,0
2018-06-19T01:50:52.830Z,0
2018-06-19T01:52:02.956Z,0
2018-06-19T01:53:13.038Z,0
2018-06-19T01:54:23.166Z,0
2018-06-19T01:55:32.729Z,0
2018-06-19T01:56:42.547Z,0
2018-06-19T01:57:52.565Z,0
2018-06-19T01:59:02.655Z,0
2018-06-19T02:00:12.725Z,0
2018-06-19T02:01:22.800Z,0
2018-06-19T02:02:32.886Z,0
2018-06-19T02:03:43.037Z,0
2018-06-19T02:04:53.113Z,0
2018-06-19T02:06:03.283Z,0
2018-06-19T02:07:13.090Z,0
2018-06-19T02:08:23.175Z,0
2018-06-19T02:09:33.270Z,0
2018-06-19T02:10:43.099Z,0
2018-06-19T02:11:53.184Z,0
2018-06-19T02:13:02.992Z,4
2018-06-19T02:14:13.078Z,4
2018-06-19T02:15:22.916Z,0
2018-06-19T02:16:32.995Z,0
2018-06-19T02:17:43.065Z,4
2018-06-19T02:18:53.140Z,4
2018-06-19T02:20:03.220Z,4
2018-06-19T02:21:13.297Z,4
2018-06-19T02:22:23.394Z,4
2018-06-19T02:23:33.227Z,4
2018-06-19T02:24:43.323Z,8
2018-06-19T02:25:53.133Z,8
2018-06-19T02:27:03.197Z,8
2018-06-19T02:28:13.012Z,12
2018-06-19T02:29:22.832Z,12
2018-06-19T02:30:32.652Z,12
2018-06-19T02:31:42.727Z,12
2018-06-19T02:32:52.801Z,20
2018-06-19T02:34:02.887Z,20
2018-06-19T02:35:12.698Z,24
2018-06-19T02:36:22.804Z,24
2018-06-19T02:37:32.882Z,32
2018-06-19T02:38:43.001Z,36
2018-06-19T02:39:53.084Z,40
2018-06-19T02:41:03.188Z,48
2018-06-19T02:42:13.007Z,52
2018-06-19T02:43:23.543Z,56
2018-06-19T02:44:33.617Z,64
2018-06-19T02:45:43.696Z,72
2018-06-19T02:46:53.765Z,80
2018-06-19T02:48:03.875Z,88
2018-06-19T02:49:13.966Z,96
2018-06-19T02:50:23.828Z,108
2018-06-19T02:51:33.918Z,120
2018-06-19T02:52:44.000Z,128
2018-06-19T02:53:54.091Z,144
2018-06-19T02:55:03.937Z,152
2018-06-19T02:56:14.023Z,168
2018-06-19T02:57:23.854Z,180
2018-06-19T02:58:34.213Z,196
2018-06-19T02:59:44.055Z,212
2018-06-19T03:00:54.149Z,228
2018-06-19T03:02:04.293Z,248
2018-06-19T03:34:40.773Z,888
2018-06-19T03:35:50.841Z,908
2018-06-19T03:37:00.913Z,932
2018-06-19T03:38:10.987Z,956
2018-06-19T03:39:20.798Z,976
2018-06-19T03:40:30.601Z,1000
2018-06-19T03:41:40.439Z,1016
2018-06-19T03:42:50.524Z,1040
2018-06-19T03:44:00.072Z,1064
2018-06-19T03:45:10.145Z,1084
2018-06-19T03:46:20.287Z,1108
2018-06-19T03:47:30.109Z,1132
2018-06-19T03:48:40.185Z,1160
2018-06-19T03:49:50.266Z,1484
2018-06-19T03:51:00.351Z,1956
2018-06-19T03:52:10.425Z,2324
2018-06-19T03:53:20.529Z,1888
2018-06-19T03:54:30.621Z,1600
2018-06-19T03:55:40.438Z,1376
2018-06-19T03:56:50.949Z,1324
2018-06-19T03:58:01.096Z,1344
2018-06-19T03:59:10.908Z,1368
2018-06-19T04:00:20.982Z,1392
2018-06-19T04:01:31.196Z,1412
2018-06-19T04:02:41.265Z,1436
2018-06-19T04:03:51.630Z,1460
2018-06-19T04:05:01.465Z,1484
2018-06-19T04:06:11.542Z,1512
2018-06-19T04:07:21.672Z,1548
2018-06-19T04:08:31.498Z,1572
2018-06-19T04:09:41.568Z,1600
2018-06-19T04:10:51.665Z,1628
2018-06-19T04:12:01.752Z,1660
2018-06-19T04:13:11.819Z,1684
2018-06-19T04:14:21.912Z,1712
2018-06-19T04:15:31.974Z,1744
2018-06-19T04:16:42.067Z,1780
2018-06-19T04:17:52.011Z,2044
2018-06-19T04:19:01.843Z,9144
2018-06-19T04:20:11.909Z,16928
2018-06-19T04:21:22.032Z,17568
2018-06-19T04:22:32.092Z,18144
2018-06-19T04:23:42.172Z,17888
2018-06-19T04:24:52.248Z,16864
2018-06-19T04:26:02.330Z,16736
2018-06-19T04:27:12.459Z,16544
2018-06-19T04:28:22.518Z,16672
2018-06-19T04:29:32.579Z,16288
2018-06-19T04:30:42.660Z,16480
2018-06-19T04:31:52.490Z,16416
2018-06-19T04:33:02.598Z,16000
2018-06-19T04:34:12.685Z,16160
2018-06-19T04:35:22.769Z,16288
2018-06-19T04:36:32.580Z,16000
2018-06-19T04:37:42.673Z,16128
2018-06-19T04:38:52.508Z,16448
2018-06-19T04:40:02.586Z,16288
2018-06-19T04:41:12.668Z,16288
2018-06-19T04:42:22.740Z,16416
2018-06-19T04:43:32.820Z,16320
2018-06-19T04:44:42.956Z,16000
2018-06-19T04:45:53.053Z,16064
2018-06-19T04:47:03.134Z,16032
2018-06-19T04:48:12.702Z,15616
2018-06-19T04:49:22.842Z,15520
2018-06-19T04:50:32.989Z,15392
2018-06-19T04:51:43.098Z,15264
2018-06-19T04:52:53.198Z,14720
2018-06-19T04:54:03.035Z,14816
2018-06-19T04:55:13.137Z,14976
2018-06-19T04:56:23.230Z,14912
2018-06-19T04:57:33.057Z,14496
2018-06-19T04:58:43.144Z,14176
2018-06-19T04:59:53.240Z,14272
2018-06-19T05:01:03.107Z,14336
2018-06-19T05:02:13.260Z,14104
2018-06-19T05:03:23.354Z,13884
2018-06-19T05:04:33.184Z,13412
2018-06-19T05:05:43.253Z,13108
2018-06-19T05:06:53.347Z,13056
2018-06-19T05:08:03.218Z,13336
2018-06-19T05:09:13.590Z,13164
2018-06-19T05:10:23.689Z,12832
2018-06-19T05:11:33.790Z,12784
2018-06-19T05:12:43.869Z,12920
2018-06-19T05:13:53.951Z,12992
2018-06-19T05:15:04.042Z,12888
2018-06-19T05:16:13.879Z,12828
2018-06-19T05:17:24.059Z,12876
2018-06-19T05:18:34.159Z,12912
2018-06-19T05:19:44.244Z,13012
2018-06-19T05:20:54.087Z,12824
2018-06-19T05:22:04.145Z,12800
2018-06-19T05:23:14.232Z,13120
2018-06-19T05:24:24.314Z,13168
2018-06-19T05:25:34.118Z,13048
2018-06-19T05:26:44.184Z,12832
2018-06-19T05:27:54.259Z,12628
2018-06-19T05:29:04.092Z,12216
2018-06-19T05:30:13.916Z,12160
2018-06-19T05:31:23.745Z,11980
2018-06-19T05:32:33.829Z,12072
2018-06-19T05:33:43.909Z,11960
2018-06-19T05:34:53.811Z,11836
2018-06-19T05:36:03.923Z,11764
2018-06-19T05:37:13.793Z,11724
2018-06-19T05:38:23.890Z,11596
2018-06-19T05:39:33.975Z,11628
2018-06-19T05:40:44.060Z,11660
2018-06-19T05:41:54.132Z,11708
2018-06-19T05:43:03.741Z,11668
2018-06-19T05:44:13.304Z,11740
2018-06-19T05:45:23.127Z,11712
2018-06-19T05:46:33.205Z,11856
2018-06-19T05:47:43.089Z,11852
2018-06-19T05:48:53.155Z,11732
2018-06-19T05:50:02.993Z,11596
2018-06-19T05:51:13.081Z,11480
2018-06-19T05:52:23.193Z,11480
2018-06-19T05:53:33.288Z,11356
2018-06-19T05:54:43.365Z,11200
2018-06-19T05:55:53.477Z,11320
2018-06-19T05:57:03.290Z,11408
2018-06-19T05:58:13.396Z,11340
2018-06-19T05:59:23.228Z,11288
2018-06-19T06:00:33.322Z,11136
2018-06-19T06:01:43.453Z,11024
2018-06-19T06:02:53.518Z,10948
2018-06-19T06:04:03.612Z,10976
2018-06-19T06:05:13.440Z,10960
2018-06-19T06:06:23.534Z,10892
2018-06-19T06:07:33.622Z,10844
2018-06-19T06:08:43.459Z,10804
2018-06-19T06:09:53.017Z,10660
2018-06-19T06:11:03.291Z,10548
2018-06-19T06:12:13.425Z,10364
2018-06-19T06:13:23.249Z,10232
2018-06-19T06:14:33.340Z,10096
2018-06-19T06:15:43.604Z,10032
2018-06-19T06:16:53.684Z,9984
2018-06-19T06:18:03.557Z,9936
2018-06-19T06:19:13.874Z,9872
2018-06-19T06:20:23.953Z,9816
2018-06-19T06:21:34.039Z,9736
2018-06-19T06:22:43.860Z,9592
2018-06-19T06:23:53.951Z,9464
2018-06-19T06:25:04.060Z,9368
2018-06-19T06:26:14.142Z,9244
2018-06-19T06:27:24.219Z,9160
2018-06-19T06:28:34.289Z,8984
2018-06-19T06:29:44.428Z,8840
2018-06-19T06:30:54.251Z,8680
2018-06-19T06:32:04.379Z,8612
2018-06-19T06:33:14.459Z,8456
2018-06-19T06:34:24.559Z,8348
2018-06-19T06:35:34.437Z,8252
2018-06-19T06:36:44.521Z,8176
2018-06-19T06:37:54.604Z,8128
2018-06-19T06:39:04.431Z,8052
2018-06-19T06:40:14.507Z,7952
2018-06-19T06:41:24.316Z,7832
2018-06-19T06:42:34.417Z,7732
2018-06-19T06:43:44.494Z,7660
2018-06-19T06:44:55.119Z,7572
2018-06-19T06:46:05.306Z,7440
2018-06-19T06:47:15.152Z,7372
2018-06-19T06:48:24.701Z,7296
2018-06-19T06:49:34.533Z,7044
2018-06-19T06:50:44.354Z,6500
2018-06-19T06:51:54.430Z,6884
2018-06-19T06:53:04.550Z,6900
2018-06-19T06:54:14.375Z,6836
2018-06-19T06:55:24.447Z,6476
2018-06-19T06:56:34.530Z,6476
2018-06-19T06:57:44.615Z,6512
2018-06-19T06:58:54.681Z,6468
2018-06-19T07:00:04.509Z,6472
2018-06-19T07:01:14.804Z,6380
2018-06-19T07:02:24.994Z,6332
2018-06-19T07:03:35.093Z,6228
2018-06-19T07:04:44.920Z,6080
2018-06-19T07:05:55.000Z,5912
2018-06-19T07:07:05.106Z,5692
2018-06-19T07:08:15.446Z,5504
2018-06-19T07:09:25.544Z,4160
2018-06-19T07:10:35.376Z,5188
2018-06-19T07:11:45.460Z,5100
2018-06-19T07:12:55.613Z,5036
2018-06-19T07:14:05.691Z,4964
2018-06-19T07:15:15.789Z,4796
2018-06-19T07:16:25.876Z,4368
2018-06-19T07:17:35.970Z,3976
2018-06-19T07:18:46.055Z,3880
2018-06-19T07:19:56.184Z,3844
2018-06-19T07:21:06.314Z,3856
2018-06-19T07:22:16.446Z,3860
2018-06-19T07:23:26.530Z,3856
2018-06-19T07:24:36.614Z,3884
2018-06-19T07:25:46.735Z,3880
2018-06-19T07:26:56.913Z,3892
2018-06-19T07:28:06.727Z,3900
2018-06-19T07:29:16.559Z,3920
2018-06-19T07:30:26.631Z,3940
2018-06-19T07:31:36.743Z,3960
2018-06-19T07:32:46.837Z,3980
2018-06-19T07:33:56.911Z,3984
2018-06-19T07:35:06.723Z,3996
2018-06-19T07:36:16.832Z,4040
2018-06-19T07:37:26.906Z,4052
2018-06-19T07:38:36.989Z,4080
2018-06-19T07:39:46.826Z,4116
2018-06-19T07:40:56.671Z,4140
2018-06-19T07:42:06.758Z,4140
2018-06-19T07:43:16.855Z,4132
2018-06-19T07:44:27.026Z,4128
2018-06-19T07:45:37.116Z,4112
2018-06-19T07:46:47.220Z,4120
2018-06-19T07:47:57.043Z,4152
2018-06-19T07:49:07.249Z,4156
2018-06-19T07:50:17.337Z,4180
2018-06-19T07:51:27.435Z,4204
2018-06-19T07:52:37.253Z,4224
2018-06-19T07:53:47.341Z,4280
2018-06-19T07:54:57.668Z,4276
2018-06-19T07:56:07.785Z,4200
2018-06-19T07:57:17.991Z,4260
2018-06-19T07:58:27.874Z,4312
2018-06-19T07:59:38.042Z,4356
2018-06-19T08:00:48.143Z,4396
2018-06-19T08:01:58.230Z,4440
2018-06-19T08:03:08.337Z,4492
2018-06-19T08:04:18.429Z,4532
2018-06-19T08:05:28.498Z,4572
2018-06-19T08:06:38.600Z,4628
2018-06-19T08:07:48.726Z,4652
2018-06-19T08:08:58.810Z,4684
2018-06-19T08:10:09.111Z,4756
2018-06-19T08:11:18.940Z,4824
2018-06-19T08:12:28.766Z,4904
2018-06-19T08:13:39.173Z,5020
2018-06-19T08:14:49.255Z,5216
2018-06-19T08:15:59.089Z,5380
2018-06-19T08:17:09.170Z,5584
2018-06-19T08:18:19.425Z,5820
2018-06-19T08:19:29.617Z,6092
2018-06-19T08:20:39.718Z,6524
2018-06-19T08:21:49.823Z,7104
2018-06-19T08:23:00.013Z,7572
2018-06-19T08:24:10.113Z,7936
2018-06-19T08:25:20.213Z,8232
2018-06-19T08:26:30.309Z,8428
2018-06-19T08:27:40.411Z,8148
2018-06-19T08:28:50.553Z,7032
2018-06-19T08:30:00.653Z,8036
2018-06-19T08:31:10.957Z,6480
2018-06-19T08:32:21.057Z,5708
2018-06-19T08:33:30.882Z,5396
2018-06-19T08:34:40.967Z,5200
2018-06-19T08:35:51.048Z,5008
2018-06-19T08:37:01.127Z,5032
2018-06-19T08:38:11.249Z,6160
2018-06-19T08:39:21.326Z,5140
2018-06-19T08:40:31.207Z,5272
2018-06-19T08:41:41.840Z,7576
2018-06-19T08:42:52.026Z,7580
2018-06-19T08:44:01.847Z,7584
2018-06-19T08:45:11.936Z,7656
2018-06-19T08:46:22.070Z,7924
2018-06-19T08:47:31.906Z,7916
2018-06-19T08:48:42.000Z,8320
2018-06-19T08:49:52.090Z,7212
2018-06-19T08:51:02.158Z,7388
2018-06-19T08:52:11.994Z,5948
2018-06-19T08:53:22.077Z,5920
2018-06-19T08:54:32.019Z,5784
2018-06-19T08:55:41.849Z,5624
2018-06-19T08:56:51.931Z,5380
2018-06-19T08:58:02.013Z,7620
2018-06-19T08:59:11.587Z,7624
2018-06-19T09:00:21.870Z,5892
2018-06-19T09:01:32.175Z,5216
2018-06-19T09:02:42.005Z,5472
2018-06-19T09:03:52.097Z,6876
2018-06-19T09:05:01.912Z,8084
2018-06-19T09:06:12.010Z,8372
2018-06-19T09:07:21.832Z,8480
2018-06-19T09:08:31.647Z,8048
2018-06-19T09:09:41.713Z,8496
2018-06-19T09:10:51.796Z,8372
2018-06-19T09:12:01.628Z,7240
2018-06-19T09:13:11.736Z,5752
2018-06-19T09:14:21.318Z,5612
2018-06-19T09:15:31.416Z,5416
2018-06-19T09:16:41.595Z,5312
2018-06-19T09:17:51.717Z,5212
2018-06-19T09:19:06.515Z,5140
2018-06-19T09:20:21.050Z,6740
2018-06-19T09:21:33.387Z,5400
2018-06-19T09:22:47.938Z,5684
2018-06-19T09:24:02.706Z,6764
2018-06-19T09:25:14.745Z,8544
2018-06-19T09:26:24.968Z,8140
2018-06-19T09:27:35.096Z,8244
2018-06-19T09:28:45.294Z,8276
2018-06-19T09:29:55.299Z,8340
2018-06-19T09:31:05.179Z,8424
2018-06-19T09:32:15.136Z,7984
2018-06-19T09:33:25.190Z,8324
2018-06-19T09:34:35.435Z,8048
2018-06-19T09:35:45.650Z,6648
2018-06-19T09:36:55.859Z,5868
2018-06-19T09:38:05.984Z,5804
2018-06-19T09:39:16.167Z,6132
2018-06-19T09:40:26.339Z,6060
2018-06-19T09:41:36.202Z,6596
2018-06-19T09:42:46.629Z,7144
2018-06-19T09:43:56.784Z,7932
2018-06-19T09:45:06.658Z,8216
2018-06-19T09:46:16.497Z,8244
2018-06-19T09:47:26.606Z,9428
2018-06-19T09:48:36.704Z,8680
2018-06-19T09:49:46.804Z,9584
2018-06-19T09:50:56.879Z,9596
2018-06-19T09:52:07.002Z,7044
2018-06-19T09:53:16.855Z,6836
2018-06-19T09:54:26.423Z,7260
2018-06-19T09:55:36.594Z,7240
2018-06-19T09:56:46.682Z,6492
2018-06-19T09:57:56.506Z,6400
2018-06-19T09:59:06.970Z,6728
2018-06-19T10:00:17.215Z,8508
2018-06-19T10:01:27.300Z,7616
2018-06-19T10:02:37.398Z,6076
2018-06-19T10:03:47.501Z,8584
2018-06-19T10:04:57.361Z,8288
2018-06-19T10:06:07.473Z,5964
2018-06-19T10:07:17.684Z,8196
2018-06-19T10:08:27.759Z,7988
2018-06-19T10:09:37.843Z,7804
2018-06-19T10:10:47.969Z,6952
2018-06-19T10:11:58.421Z,5284
2018-06-19T10:13:08.637Z,5092
2018-06-19T10:14:18.485Z,4648
2018-06-19T10:15:28.565Z,4604
2018-06-19T10:16:38.645Z,6544
2018-06-19T10:17:48.741Z,5312
2018-06-19T10:18:58.827Z,5536
2018-06-19T10:20:08.932Z,8848
2018-06-19T10:21:19.029Z,9076
2018-06-19T10:22:29.117Z,9420
2018-06-19T10:23:38.942Z,8696
2018-06-19T10:24:49.032Z,6780
2018-06-19T10:25:59.123Z,6168
2018-06-19T10:27:08.958Z,6180
2018-06-19T10:28:18.788Z,6508
2018-06-19T10:29:28.604Z,6376
2018-06-19T10:30:38.794Z,5932
2018-06-19T10:31:48.895Z,5864
2018-06-19T10:32:58.978Z,6872
2018-06-19T10:34:08.541Z,7408
2018-06-19T10:35:18.647Z,8500
2018-06-19T10:36:28.737Z,8656
2018-06-19T10:37:38.285Z,8732
2018-06-19T10:38:48.374Z,8632
2018-06-19T10:39:58.219Z,8540
2018-06-19T10:41:08.403Z,8552
2018-06-19T10:42:18.543Z,8696
2018-06-19T10:43:28.645Z,7696
2018-06-19T10:44:38.731Z,7780
2018-06-19T10:45:48.602Z,6808
2018-06-19T10:46:58.768Z,7612
2018-06-19T10:48:08.863Z,7348
2018-06-19T10:49:18.958Z,6500
2018-06-19T10:50:29.055Z,6444
2018-06-19T10:51:38.910Z,7004
2018-06-19T10:52:48.860Z,3808
2018-06-19T10:53:58.806Z,5064
2018-06-19T10:55:08.672Z,3408
2018-06-19T10:56:18.773Z,3372
2018-06-19T10:57:28.605Z,3456
2018-06-19T10:58:38.729Z,7420
2018-06-19T10:59:48.864Z,7416
2018-06-19T11:00:58.972Z,7572
2018-06-19T11:02:08.797Z,7544
2018-06-19T11:03:18.627Z,7556
2018-06-19T11:04:28.720Z,3960
2018-06-19T11:05:38.867Z,7592
2018-06-19T11:06:48.965Z,7576
2018-06-19T11:07:59.184Z,7732
2018-06-19T11:09:09.006Z,7996
2018-06-19T11:10:18.819Z,8304
2018-06-19T11:11:28.910Z,8604
2018-06-19T11:12:38.517Z,8928
2018-06-19T11:13:48.598Z,9204
2018-06-19T11:14:58.638Z,9064
2018-06-19T11:16:08.713Z,9484
2018-06-19T11:17:18.826Z,8388
2018-06-19T11:18:28.924Z,8868
2018-06-19T11:19:39.021Z,9444
2018-06-19T11:20:48.844Z,10372
2018-06-19T11:21:58.963Z,7596
2018-06-19T11:23:09.059Z,6628
2018-06-19T11:24:18.884Z,8168
2018-06-19T11:25:29.012Z,6640
2018-06-19T11:26:39.110Z,6472
2018-06-19T11:27:49.192Z,6536
2018-06-19T11:28:59.514Z,6548
2018-06-19T11:30:09.725Z,6420
2018-06-19T11:31:19.556Z,6268
2018-06-19T11:32:29.397Z,6668
2018-06-19T11:33:39.483Z,7588
2018-06-19T11:34:49.642Z,7388
2018-06-19T11:35:59.736Z,7080
2018-06-19T11:37:09.840Z,8596
2018-06-19T11:38:19.688Z,7792
2018-06-19T11:39:29.814Z,8552
2018-06-19T11:40:39.914Z,9112
2018-06-19T11:41:49.732Z,9436
2018-06-19T11:42:59.568Z,9752
2018-06-19T11:44:09.729Z,6012
2018-06-19T11:45:19.820Z,5824
2018-06-19T11:46:29.629Z,5696
2018-06-19T11:49:18.158Z,5504
2018-06-19T11:50:28.007Z,5476
2018-06-19T11:51:38.094Z,4800
2018-06-19T11:52:48.174Z,5732
2018-06-19T11:53:58.243Z,5104
2018-06-19T11:55:08.075Z,4972
2018-06-19T11:56:18.175Z,7368
2018-06-19T11:57:28.255Z,7696
2018-06-19T11:58:38.103Z,7504
2018-06-19T11:59:48.253Z,7616
2018-06-19T12:00:58.356Z,7564
2018-06-19T12:02:08.528Z,5580
2018-06-19T12:03:18.623Z,8424
2018-06-19T12:04:28.445Z,8340
2018-06-19T12:05:38.287Z,8748
2018-06-19T12:06:48.554Z,8820
2018-06-19T12:07:58.789Z,8608
2018-06-19T12:09:09.087Z,8564
2018-06-19T12:10:19.210Z,8532
2018-06-19T12:11:29.358Z,8628
2018-06-19T12:12:39.436Z,8772
2018-06-19T12:13:49.529Z,5724
2018-06-19T12:14:59.649Z,4768
2018-06-19T12:16:09.595Z,5200
2018-06-19T12:17:19.705Z,5064
2018-06-19T12:18:29.847Z,4856
2018-06-19T12:19:39.991Z,4816
2018-06-19T12:20:50.084Z,5056
2018-06-19T12:22:00.202Z,4712
2018-06-19T12:23:10.304Z,4828
2018-06-19T12:24:20.407Z,4744
2018-06-19T12:25:30.280Z,4832
2018-06-19T12:26:40.402Z,5200
2018-06-19T12:27:50.233Z,5220
2018-06-19T12:29:00.320Z,5484
2018-06-19T12:30:10.409Z,9516
2018-06-19T12:31:20.535Z,9296
2018-06-19T12:32:30.665Z,9256
2018-06-19T12:33:40.519Z,9300
2018-06-19T12:34:50.375Z,9196
2018-06-19T12:36:00.494Z,9128
2018-06-19T12:37:10.678Z,9144
2018-06-19T12:38:20.802Z,9132
2018-06-19T12:39:30.932Z,9224
2018-06-19T12:40:41.023Z,6980
2018-06-19T12:41:51.151Z,5900
2018-06-19T12:43:01.231Z,5204
2018-06-19T12:44:11.467Z,4700
2018-06-19T12:45:21.304Z,4588
2018-06-19T12:46:31.716Z,4248
2018-06-19T12:47:41.842Z,7688
2018-06-19T12:48:51.662Z,7848
2018-06-19T12:50:01.902Z,7748
2018-06-19T12:51:12.275Z,4028
2018-06-19T12:52:21.849Z,4136
2018-06-19T12:53:31.674Z,7764
2018-06-19T12:54:41.823Z,7792
2018-06-19T12:55:51.930Z,7532
2018-06-19T12:57:02.054Z,3812
2018-06-19T12:58:12.143Z,3572
2018-06-19T12:59:22.223Z,3568
2018-06-19T13:00:32.080Z,3376
2018-06-19T13:01:42.167Z,3988
2018-06-19T13:02:52.272Z,7220
2018-06-19T13:04:02.357Z,7216
2018-06-19T13:05:12.452Z,7172
2018-06-19T13:06:22.579Z,7212
2018-06-19T13:07:32.680Z,3452
2018-06-19T13:08:42.783Z,3256
2018-06-19T13:09:52.617Z,3096
2018-06-19T13:11:02.753Z,3136
2018-06-19T13:12:12.936Z,4824
2018-06-19T13:13:23.026Z,3180
2018-06-19T13:14:33.127Z,3444
2018-06-19T13:15:43.225Z,5944
2018-06-19T13:16:53.324Z,6628
2018-06-19T13:18:03.152Z,6652
2018-06-19T13:19:13.257Z,6748
2018-06-19T13:20:22.838Z,6864
2018-06-19T13:21:32.931Z,7004
2018-06-19T13:22:43.027Z,7092
2018-06-19T13:23:53.304Z,7112
2018-06-19T13:25:03.396Z,7260
2018-06-19T13:26:13.506Z,7564
2018-06-19T13:27:23.608Z,8000
2018-06-19T13:28:33.702Z,8308
2018-06-19T13:29:43.849Z,8376
2018-06-19T13:30:53.666Z,8428
2018-06-19T13:32:03.747Z,8348
2018-06-19T13:33:13.839Z,8220
2018-06-19T13:34:23.963Z,8148
2018-06-19T13:35:34.280Z,8004
2018-06-19T13:36:44.376Z,7772
2018-06-19T13:37:54.483Z,7468
2018-06-19T13:39:04.578Z,7056
2018-06-19T13:40:14.693Z,6808
2018-06-19T13:41:24.813Z,6612
2018-06-19T13:42:34.901Z,6516
2018-06-19T13:43:45.008Z,6372
2018-06-19T13:44:54.585Z,6264
2018-06-19T13:46:04.671Z,6228
2018-06-19T13:47:14.536Z,6260
2018-06-19T13:48:24.622Z,6220
2018-06-19T13:49:34.866Z,6256
2018-06-19T13:50:44.951Z,6340
2018-06-19T13:51:55.077Z,6464
2018-06-19T13:53:05.148Z,6744
2018-06-19T13:54:15.219Z,6988
2018-06-19T13:55:25.336Z,7156
2018-06-19T13:56:35.418Z,7344
2018-06-19T13:57:45.259Z,7440
2018-06-19T13:58:55.098Z,7408
2018-06-19T14:00:04.662Z,7376
2018-06-19T14:01:14.751Z,7284
2018-06-19T14:02:24.853Z,7096
2018-06-19T14:03:34.947Z,6860
2018-06-19T14:04:44.793Z,6660
2018-06-19T14:05:54.893Z,6520
2018-06-19T14:07:04.980Z,6392
2018-06-19T14:08:15.396Z,6384
2018-06-19T14:09:25.685Z,6376
2018-06-19T14:10:35.850Z,6300
2018-06-19T14:11:45.927Z,6324
2018-06-19T14:12:56.048Z,6272
2018-06-19T14:14:05.953Z,6240
2018-06-19T14:15:15.792Z,6108
2018-06-19T14:16:25.690Z,5976
2018-06-19T14:17:35.541Z,5872
2018-06-19T14:18:45.775Z,5820
2018-06-19T14:19:56.217Z,5912
2018-06-19T14:21:06.387Z,6084
2018-06-19T14:22:16.578Z,6216
2018-06-19T14:23:26.666Z,5272
2018-06-19T14:24:36.777Z,6364
2018-06-19T14:25:46.897Z,6424
2018-06-19T14:26:57.042Z,6544
2018-06-19T14:28:07.171Z,6572
2018-06-19T14:29:17.080Z,6724
2018-06-19T14:30:27.186Z,5692
2018-06-19T14:31:37.304Z,6776
2018-06-19T14:32:47.428Z,6568
2018-06-19T14:33:57.558Z,6416
2018-06-19T14:35:07.687Z,6264
2018-06-19T14:36:17.521Z,6076
2018-06-19T14:37:27.613Z,5956
2018-06-19T14:38:37.687Z,6012
2018-06-19T14:39:47.809Z,6012
2018-06-19T14:40:57.709Z,6052
2018-06-19T14:42:07.792Z,6124
2018-06-19T14:43:17.882Z,6192
2018-06-19T14:44:27.469Z,6244
2018-06-19T14:45:37.325Z,6252
2018-06-19T14:46:47.300Z,6184
2018-06-19T14:47:57.240Z,6108
2018-06-19T14:49:07.333Z,5960
2018-06-19T14:50:17.433Z,5764
2018-06-19T14:51:27.562Z,5628
2018-06-19T14:52:37.660Z,5520
2018-06-19T14:53:47.755Z,5452
2018-06-19T14:54:57.869Z,5460
2018-06-19T14:56:07.711Z,5324
2018-06-19T14:57:17.806Z,5252
2018-06-19T14:58:28.175Z,5176
2018-06-19T14:59:38.284Z,5144
2018-06-19T15:00:48.686Z,5040
2018-06-19T15:01:58.829Z,5016
2018-06-19T15:03:08.909Z,4924
2018-06-19T15:04:18.505Z,4848
2018-06-19T15:05:28.600Z,4800
2018-06-19T15:06:38.503Z,4740
2018-06-19T15:07:48.603Z,4640
2018-06-19T15:08:58.735Z,4648
2018-06-19T15:10:09.424Z,4640
2018-06-19T15:11:19.378Z,4712
2018-06-19T15:12:29.278Z,4756
2018-06-19T15:13:39.127Z,4832
2018-06-19T15:14:49.226Z,4940
2018-06-19T15:15:59.321Z,4992
2018-06-19T15:17:09.404Z,5116
2018-06-19T15:18:19.599Z,5132
2018-06-19T15:19:29.741Z,5200
2018-06-19T15:20:39.834Z,5188
2018-06-19T15:21:49.929Z,5064
2018-06-19T15:23:00.018Z,4976
2018-06-19T15:24:09.761Z,4840
2018-06-19T15:25:19.625Z,4660
2018-06-19T15:26:29.735Z,4548
2018-06-19T15:27:39.314Z,4516
2018-06-19T15:28:49.414Z,3284
2018-06-19T15:29:59.501Z,2400
2018-06-19T15:31:09.617Z,4344
2018-06-19T15:32:19.720Z,4364
2018-06-19T15:33:29.828Z,4340
2018-06-19T15:34:39.684Z,4272
2018-06-19T15:35:49.252Z,4192
2018-06-19T15:36:59.143Z,4100
2018-06-19T15:38:09.236Z,4036
2018-06-19T15:39:19.481Z,3960
2018-06-19T15:40:29.068Z,3896
2018-06-19T15:41:38.962Z,3864
2018-06-19T15:42:49.066Z,3880
2018-06-19T15:43:58.902Z,3872
2018-06-19T15:45:08.755Z,3852
2018-06-19T15:46:18.844Z,3868
2018-06-19T15:47:28.700Z,3868
2018-06-19T15:48:38.786Z,3852
2018-06-19T15:49:48.880Z,3880
2018-06-19T15:50:58.731Z,3924
2018-06-19T15:52:08.841Z,3952
2018-06-19T15:53:18.935Z,3980
2018-06-19T15:54:29.041Z,4032
2018-06-19T15:55:39.171Z,4124
2018-06-19T15:56:49.277Z,4196
2018-06-19T15:57:59.355Z,4208
2018-06-19T15:59:09.522Z,4188
2018-06-19T16:00:19.642Z,4084
2018-06-19T16:01:29.726Z,4032
2018-06-19T16:02:39.579Z,4012
2018-06-19T16:03:49.674Z,3992
2018-06-19T16:04:59.988Z,3956
2018-06-19T16:06:09.805Z,3896
2018-06-19T16:07:20.127Z,3848
2018-06-19T16:08:30.220Z,3816
2018-06-19T16:09:40.333Z,3796
2018-06-19T16:10:50.176Z,3792
2018-06-19T16:12:00.046Z,3768
2018-06-19T16:13:10.172Z,3752
2018-06-19T16:14:20.267Z,3736
2018-06-19T16:15:30.350Z,3672
2018-06-19T16:16:40.176Z,3640
2018-06-19T16:17:50.273Z,3592